Time;durP1;ratioP1;P1;durP2;ratioP2;P2;SDS_P1;SDS_P2;PMS_P1;PMS_P2;Temp;Humidity;BMP_temperature;BMP_pressure;BME280_temperature;BME280_humidity;BME280_pressure;Samples;Min_cycle;Max_cycle;Signal;HPM_P1;HPM_P2
2021/06/16 00:01:36;;;;;;;11.88;5.28;;;;;;;;;;5015060;28;20022;-71
2021/06/16 00:04:05;;;;;;;9.15;5.50;;;;;;;;;;5008934;28;20056;-71
2021/06/16 00:06:32;;;;;;;6.10;4.70;;;;;;;;;;5001160;28;20042;-71
2021/06/16 00:08:59;;;;;;;7.45;5.45;;;;;;;;;;4999135;28;20029;-70
2021/06/16 00:11:26;;;;;;;7.07;5.93;;;;;;;;;;5007203;28;20148;-71
2021/06/16 00:13:54;;;;;;;7.10;4.97;;;;;;;;;;5007131;28;20101;-70
2021/06/16 00:16:21;;;;;;;11.55;5.68;;;;;;;;;;5011730;28;20489;-71
2021/06/16 00:18:48;;;;;;;8.82;4.65;;;;;;;;;;5013207;28;20017;-71
2021/06/16 00:21:15;;;;;;;6.93;4.93;;;;;;;;;;5013110;28;20022;-71
2021/06/16 00:23:42;;;;;;;6.32;4.75;;;;;;;;;;5014937;28;20471;-71
2021/06/16 00:26:10;;;;;;;8.30;4.82;;;;;;;;;;5013190;28;20542;-71
2021/06/16 00:28:37;;;;;;;8.60;5.45;;;;;;;;;;5014955;28;20038;-71
2021/06/16 00:31:05;;;;;;;6.18;4.95;;;;;;;;;;5012043;28;20426;-70
2021/06/16 00:33:32;;;;;;;8.18;4.80;;;;;;;;;;5012168;28;20525;-71
2021/06/16 00:35:59;;;;;;;5.63;4.10;;;;;;;;;;5012472;28;20041;-71
2021/06/16 00:38:27;;;;;;;6.65;4.20;;;;;;;;;;5014445;28;20068;-71
2021/06/16 00:40:54;;;;;;;6.40;4.70;;;;;;;;;;5010922;28;20034;-71
2021/06/16 00:43:21;;;;;;;11.13;5.22;;;;;;;;;;5014529;28;20080;-71
2021/06/16 00:45:48;;;;;;;6.72;3.95;;;;;;;;;;5013155;28;20089;-71
2021/06/16 00:48:16;;;;;;;7.75;4.85;;;;;;;;;;5014127;28;20029;-71
2021/06/16 00:50:43;;;;;;;7.25;3.60;;;;;;;;;;5012522;28;20105;-71
2021/06/16 00:53:11;;;;;;;5.85;4.38;;;;;;;;;;5012670;28;20101;-71
2021/06/16 00:55:38;;;;;;;7.22;4.15;;;;;;;;;;5012320;28;20014;-71
2021/06/16 00:58:12;;;;;;;6.53;4.90;;;;;;;;;;5014090;28;20049;-71
2021/06/16 01:00:59;;;;;;;6.82;4.55;;;;;;;;;;5012327;28;20044;-71
2021/06/16 01:03:40;;;;;;;10.48;4.20;;;;;;;;;;5012803;28;20055;-71
2021/06/16 01:06:11;;;;;;;5.13;3.42;;;;;;;;;;5009597;28;20025;-71
2021/06/16 01:08:43;;;;;;;6.70;4.20;;;;;;;;;;4997417;28;20044;-71
2021/06/16 01:11:11;;;;;;;5.28;3.60;;;;;;;;;;5010220;28;20030;-71
2021/06/16 01:13:55;;;;;;;4.45;4.03;;;;;;;;;;5015010;28;20403;-71
2021/06/16 01:16:30;;;;;;;8.02;3.55;;;;;;;;;;5011792;28;20058;-71
2021/06/16 01:19:02;;;;;;;5.35;3.28;;;;;;;;;;5021799;28;20075;-71
2021/06/16 01:21:29;;;;;;;5.70;4.05;;;;;;;;;;4999255;28;20510;-71
2021/06/16 01:24:02;;;;;;;5.40;3.38;;;;;;;;;;5013497;28;20050;-71
2021/06/16 01:26:30;;;;;;;9.25;3.85;;;;;;;;;;5008838;28;20038;-71
2021/06/16 01:29:17;;;;;;;4.45;3.00;;;;;;;;;;5011469;28;20034;-71
2021/06/16 01:31:44;;;;;;;5.53;3.17;;;;;;;;;;5011949;28;20025;-70
2021/06/16 01:34:12;;;;;;;6.30;3.17;;;;;;;;;;5013446;28;20034;-71
2021/06/16 01:36:43;;;;;;;4.60;3.42;;;;;;;;;;5012574;28;20021;-70
2021/06/16 01:39:10;;;;;;;3.97;3.17;;;;;;;;;;5011545;28;20442;-70
2021/06/16 01:41:38;;;;;;;4.50;3.03;;;;;;;;;;5010764;28;20076;-70
2021/06/16 01:44:06;;;;;;;4.10;3.08;;;;;;;;;;5013199;28;20022;-70
2021/06/16 01:46:33;;;;;;;8.30;3.90;;;;;;;;;;5011241;28;20045;-69
2021/06/16 01:49:00;;;;;;;5.85;3.25;;;;;;;;;;5010304;28;20088;-69
2021/06/16 01:51:28;;;;;;;7.45;3.20;;;;;;;;;;5008410;28;20126;-70
2021/06/16 01:53:57;;;;;;;5.25;2.90;;;;;;;;;;5007941;28;20498;-70
2021/06/16 01:56:24;;;;;;;4.00;2.80;;;;;;;;;;5006051;28;20145;-70
2021/06/16 01:58:52;;;;;;;4.80;2.72;;;;;;;;;;4991667;28;20025;-69
2021/06/16 02:01:20;;;;;;;6.47;2.80;;;;;;;;;;5009695;28;20028;-69
2021/06/16 02:03:47;;;;;;;5.30;3.00;;;;;;;;;;5006122;28;20026;-69
2021/06/16 02:06:18;;;;;;;3.55;2.80;;;;;;;;;;5008947;28;20046;-70
2021/06/16 02:08:47;;;;;;;4.55;2.55;;;;;;;;;;5010052;28;20033;-70
2021/06/16 02:11:15;;;;;;;4.47;2.47;;;;;;;;;;4992972;28;20034;-69
2021/06/16 02:13:43;;;;;;;3.95;2.60;;;;;;;;;;5009098;28;20038;-67
2021/06/16 02:16:15;;;;;;;4.68;2.40;;;;;;;;;;5008427;28;20030;-67
2021/06/16 02:18:47;;;;;;;5.68;2.83;;;;;;;;;;5012623;28;20474;-67
2021/06/16 02:21:15;;;;;;;3.92;2.00;;;;;;;;;;5009262;28;20088;-67
2021/06/16 02:23:43;;;;;;;7.15;2.50;;;;;;;;;;5012265;28;20026;-67
2021/06/16 02:26:14;;;;;;;4.18;2.10;;;;;;;;;;5009860;28;20394;-67
2021/06/16 02:28:41;;;;;;;4.93;1.75;;;;;;;;;;5012209;28;20033;-67
2021/06/16 02:31:09;;;;;;;5.53;1.90;;;;;;;;;;5009731;28;20071;-68
2021/06/16 02:33:36;;;;;;;4.35;2.22;;;;;;;;;;5011118;28;20062;-68
2021/06/16 02:36:03;;;;;;;4.70;1.58;;;;;;;;;;5010776;28;20029;-67
2021/06/16 02:38:32;;;;;;;3.85;2.05;;;;;;;;;;5010070;28;20029;-67
2021/06/16 02:41:01;;;;;;;1.88;1.25;;;;;;;;;;5009320;28;20026;-64
2021/06/16 02:43:28;;;;;;;4.30;1.60;;;;;;;;;;5010982;28;20030;-65
2021/06/16 02:45:56;;;;;;;3.60;1.55;;;;;;;;;;5010659;28;20026;-65
2021/06/16 02:48:24;;;;;;;3.08;1.30;;;;;;;;;;5007584;28;20376;-65
2021/06/16 02:50:52;;;;;;;5.57;1.85;;;;;;;;;;5009619;28;20517;-65
2021/06/16 02:53:23;;;;;;;4.60;1.80;;;;;;;;;;5011951;28;20383;-66
2021/06/16 02:55:52;;;;;;;6.25;1.65;;;;;;;;;;5010014;28;20605;-66
2021/06/16 02:58:19;;;;;;;3.30;1.40;;;;;;;;;;5005315;28;20558;-66
2021/06/16 03:00:47;;;;;;;3.25;1.27;;;;;;;;;;5009980;28;20490;-66
2021/06/16 03:03:18;;;;;;;2.92;1.50;;;;;;;;;;5009209;28;20036;-66
2021/06/16 03:05:46;;;;;;;5.28;1.80;;;;;;;;;;5011026;28;20018;-65
2021/06/16 03:08:14;;;;;;;3.53;1.58;;;;;;;;;;5011995;28;20049;-66
2021/06/16 03:10:42;;;;;;;4.47;1.40;;;;;;;;;;5010058;28;20018;-65
2021/06/16 03:13:09;;;;;;;4.57;1.05;;;;;;;;;;5011937;28;20101;-65
2021/06/16 03:15:37;;;;;;;5.10;1.50;;;;;;;;;;5009405;28;20014;-66
2021/06/16 03:18:05;;;;;;;1.73;0.73;;;;;;;;;;5011902;28;20053;-65
2021/06/16 03:20:32;;;;;;;2.15;0.82;;;;;;;;;;5010261;28;20045;-65
2021/06/16 03:23:00;;;;;;;2.47;0.80;;;;;;;;;;5011634;28;20120;-67
2021/06/16 03:25:28;;;;;;;2.58;0.88;;;;;;;;;;5009841;28;20410;-66
2021/06/16 03:27:56;;;;;;;3.05;0.52;;;;;;;;;;5010038;28;20389;-67
2021/06/16 03:30:24;;;;;;;4.20;0.68;;;;;;;;;;5010034;28;20512;-66
2021/06/16 03:32:52;;;;;;;3.22;0.65;;;;;;;;;;5012057;28;20018;-66
2021/06/16 03:35:19;;;;;;;3.25;1.00;;;;;;;;;;5009318;28;20025;-65
2021/06/16 03:37:47;;;;;;;2.83;0.98;;;;;;;;;;5008229;28;20034;-66
2021/06/16 03:40:15;;;;;;;3.95;0.60;;;;;;;;;;5003033;28;20037;-65
2021/06/16 03:42:43;;;;;;;2.92;0.70;;;;;;;;;;5005253;28;20388;-66
2021/06/16 03:45:11;;;;;;;2.20;0.57;;;;;;;;;;5007423;28;20520;-66
2021/06/16 03:47:41;;;;;;;1.90;0.60;;;;;;;;;;5014007;28;20433;-66
2021/06/16 03:50:10;;;;;;;1.67;0.70;;;;;;;;;;5010470;28;20476;-66
2021/06/16 03:52:38;;;;;;;2.13;0.77;;;;;;;;;;5016486;28;20018;-66
2021/06/16 03:55:05;;;;;;;2.65;0.80;;;;;;;;;;5010353;28;20102;-66
2021/06/16 03:57:33;;;;;;;1.55;0.40;;;;;;;;;;5008115;28;20529;-66
2021/06/16 04:00:02;;;;;;;4.35;0.57;;;;;;;;;;5007690;28;20022;-66
2021/06/16 04:02:29;;;;;;;6.57;0.70;;;;;;;;;;5017241;28;20014;-66
2021/06/16 04:05:00;;;;;;;4.32;0.77;;;;;;;;;;5031307;28;20032;-66
2021/06/16 04:07:28;;;;;;;3.25;0.47;;;;;;;;;;5013658;28;20038;-66
2021/06/16 04:09:56;;;;;;;3.25;0.70;;;;;;;;;;5006316;28;20030;-66
2021/06/16 04:12:23;;;;;;;2.50;0.57;;;;;;;;;;5014322;28;20088;-66
2021/06/16 04:14:51;;;;;;;3.55;0.50;;;;;;;;;;5010868;28;20026;-66
2021/06/16 04:17:18;;;;;;;2.40;0.50;;;;;;;;;;5011082;28;20116;-66
2021/06/16 04:19:46;;;;;;;3.58;0.50;;;;;;;;;;5011280;28;20116;-66
2021/06/16 04:22:14;;;;;;;3.20;0.82;;;;;;;;;;5006490;28;20105;-66
2021/06/16 04:24:41;;;;;;;3.92;1.08;;;;;;;;;;5009272;28;20410;-66
2021/06/16 04:27:08;;;;;;;3.90;0.60;;;;;;;;;;5010664;28;20092;-67
2021/06/16 04:29:37;;;;;;;2.97;0.80;;;;;;;;;;5012096;28;20022;-66
2021/06/16 04:32:04;;;;;;;2.13;0.50;;;;;;;;;;5007732;28;20037;-66
2021/06/16 04:34:31;;;;;;;3.45;0.60;;;;;;;;;;5013493;28;20197;-66
2021/06/16 04:36:58;;;;;;;5.03;1.10;;;;;;;;;;5006933;28;20034;-66
2021/06/16 04:39:25;;;;;;;1.45;0.60;;;;;;;;;;5007662;28;20026;-66
2021/06/16 04:41:53;;;;;;;1.08;0.43;;;;;;;;;;5007620;28;20030;-67
2021/06/16 04:44:20;;;;;;;1.35;0.40;;;;;;;;;;5008665;28;20076;-66
2021/06/16 04:46:49;;;;;;;2.42;0.50;;;;;;;;;;5004683;28;20088;-66
2021/06/16 04:49:16;;;;;;;4.15;0.82;;;;;;;;;;5002536;28;20026;-66
2021/06/16 04:51:43;;;;;;;1.63;0.40;;;;;;;;;;5007279;28;20077;-66
2021/06/16 04:54:10;;;;;;;3.20;0.47;;;;;;;;;;5006464;28;20022;-66
2021/06/16 04:56:39;;;;;;;1.38;0.70;;;;;;;;;;5011475;28;20065;-67
2021/06/16 04:59:06;;;;;;;2.90;1.05;;;;;;;;;;5012267;28;20018;-66
2021/06/16 05:01:35;;;;;;;1.48;0.63;;;;;;;;;;5008691;28;20030;-66
2021/06/16 05:04:02;;;;;;;3.53;0.70;;;;;;;;;;5011404;28;20602;-66
2021/06/16 05:06:29;;;;;;;3.28;0.70;;;;;;;;;;5009869;28;20065;-67
2021/06/16 05:08:56;;;;;;;3.50;0.40;;;;;;;;;;5012608;28;20034;-66
2021/06/16 05:11:23;;;;;;;1.52;0.55;;;;;;;;;;5005400;28;21244;-66
2021/06/16 05:13:50;;;;;;;3.15;0.70;;;;;;;;;;5009820;28;20100;-66
2021/06/16 05:16:18;;;;;;;3.47;0.93;;;;;;;;;;5007448;28;20032;-66
2021/06/16 05:18:47;;;;;;;4.20;0.63;;;;;;;;;;5008446;28;20360;-66
2021/06/16 05:21:14;;;;;;;1.83;0.40;;;;;;;;;;5005889;28;20022;-66
2021/06/16 05:23:42;;;;;;;3.92;0.82;;;;;;;;;;5006179;28;20037;-66
2021/06/16 05:26:10;;;;;;;4.95;0.65;;;;;;;;;;5005341;28;20018;-66
2021/06/16 05:28:37;;;;;;;6.53;0.75;;;;;;;;;;5005579;28;20037;-66
2021/06/16 05:31:04;;;;;;;2.40;0.60;;;;;;;;;;5001539;28;20032;-66
2021/06/16 05:33:31;;;;;;;2.08;0.50;;;;;;;;;;5007377;28;20034;-66
2021/06/16 05:35:58;;;;;;;3.35;1.20;;;;;;;;;;5006597;28;20056;-65
2021/06/16 05:38:25;;;;;;;2.90;0.60;;;;;;;;;;5011192;28;20026;-66
2021/06/16 05:40:52;;;;;;;2.63;0.60;;;;;;;;;;4990694;28;20025;-67
2021/06/16 05:43:20;;;;;;;3.67;0.70;;;;;;;;;;5008157;28;20060;-66
2021/06/16 05:45:47;;;;;;;3.60;1.20;;;;;;;;;;5017425;28;20076;-66
2021/06/16 05:48:14;;;;;;;5.57;1.10;;;;;;;;;;5012195;28;20494;-66
2021/06/16 05:50:41;;;;;;;7.00;1.00;;;;;;;;;;5008814;28;20034;-66
2021/06/16 05:53:12;;;;;;;2.60;0.80;;;;;;;;;;5010989;28;20026;-67
2021/06/16 05:55:39;;;;;;;3.75;0.80;;;;;;;;;;5008849;28;20025;-67
2021/06/16 05:58:06;;;;;;;6.47;1.00;;;;;;;;;;5011287;28;20419;-67
2021/06/16 06:00:33;;;;;;;7.70;1.25;;;;;;;;;;5010313;28;20022;-67
2021/06/16 06:03:01;;;;;;;2.80;0.90;;;;;;;;;;5012637;28;20026;-67
2021/06/16 06:05:29;;;;;;;4.43;0.65;;;;;;;;;;5006960;28;20018;-67
2021/06/16 06:07:56;;;;;;;2.05;0.70;;;;;;;;;;5012452;28;20092;-67
2021/06/16 06:10:24;;;;;;;3.10;0.70;;;;;;;;;;5010256;28;20130;-67
2021/06/16 06:12:51;;;;;;;4.65;1.60;;;;;;;;;;5012133;28;20481;-67
2021/06/16 06:15:19;;;;;;;2.60;0.55;;;;;;;;;;5002161;28;20427;-67
2021/06/16 06:17:46;;;;;;;3.15;1.38;;;;;;;;;;5010731;28;20092;-67
2021/06/16 06:20:13;;;;;;;3.00;0.77;;;;;;;;;;5005824;28;20026;-67
2021/06/16 06:22:40;;;;;;;2.97;1.10;;;;;;;;;;5012220;28;20026;-67
2021/06/16 06:25:08;;;;;;;3.67;0.90;;;;;;;;;;4992154;28;20045;-67
2021/06/16 06:27:35;;;;;;;3.35;2.05;;;;;;;;;;5010613;28;20394;-67
2021/06/16 06:30:02;;;;;;;2.83;1.63;;;;;;;;;;5008543;28;20030;-67
2021/06/16 06:32:29;;;;;;;6.22;1.95;;;;;;;;;;5013317;28;20022;-67
2021/06/16 06:34:57;;;;;;;4.43;1.45;;;;;;;;;;5023603;28;20566;-67
2021/06/16 06:37:24;;;;;;;6.70;1.27;;;;;;;;;;4999729;28;20046;-68
2021/06/16 06:39:51;;;;;;;3.00;0.90;;;;;;;;;;5001786;28;20022;-68
2021/06/16 06:42:18;;;;;;;3.63;0.80;;;;;;;;;;5001515;28;20018;-68
2021/06/16 06:44:46;;;;;;;6.20;1.08;;;;;;;;;;5009509;28;20125;-67
2021/06/16 06:47:13;;;;;;;3.40;1.00;;;;;;;;;;5011781;28;20034;-68
2021/06/16 06:49:43;;;;;;;5.65;1.23;;;;;;;;;;5012173;28;20026;-67
2021/06/16 06:52:10;;;;;;;1.75;0.70;;;;;;;;;;5009579;28;20509;-68
2021/06/16 06:54:38;;;;;;;2.92;0.90;;;;;;;;;;5007204;28;20033;-67
2021/06/16 06:57:05;;;;;;;13.15;7.28;;;;;;;;;;5009388;28;20029;-66
2021/06/16 06:59:32;;;;;;;6.10;1.67;;;;;;;;;;5011863;28;20026;-67
2021/06/16 07:01:59;;;;;;;4.88;1.23;;;;;;;;;;5008040;28;20038;-66
2021/06/16 07:04:26;;;;;;;4.07;1.27;;;;;;;;;;5011282;28;20493;-67
2021/06/16 07:06:54;;;;;;;5.50;1.83;;;;;;;;;;5012314;28;20377;-67
2021/06/16 07:09:21;;;;;;;4.97;1.40;;;;;;;;;;4993013;28;20545;-66
2021/06/16 07:11:48;;;;;;;10.55;1.65;;;;;;;;;;5009468;28;20057;-67
2021/06/16 07:14:15;;;;;;;3.28;1.00;;;;;;;;;;5007931;28;20025;-67
2021/06/16 07:16:43;;;;;;;6.78;1.58;;;;;;;;;;5004462;28;20567;-67
2021/06/16 07:19:10;;;;;;;5.93;1.40;;;;;;;;;;5007117;28;20037;-67
2021/06/16 07:21:37;;;;;;;6.03;1.60;;;;;;;;;;5006281;28;20034;-67
2021/06/16 07:24:05;;;;;;;6.63;2.17;;;;;;;;;;5012027;28;20120;-67
2021/06/16 07:26:32;;;;;;;3.42;1.00;;;;;;;;;;5013140;28;20030;-67
2021/06/16 07:28:59;;;;;;;5.57;1.00;;;;;;;;;;5014923;28;20063;-67
2021/06/16 07:31:26;;;;;;;3.20;1.10;;;;;;;;;;5014388;28;20017;-67
2021/06/16 07:33:54;;;;;;;8.52;2.08;;;;;;;;;;5023234;28;20022;-65
2021/06/16 07:36:21;;;;;;;3.47;1.30;;;;;;;;;;5013604;28;20439;-66
2021/06/16 07:38:51;;;;;;;6.28;1.80;;;;;;;;;;5015666;28;20072;-66
2021/06/16 07:41:18;;;;;;;6.45;1.63;;;;;;;;;;5015337;28;20037;-66
2021/06/16 07:43:45;;;;;;;5.80;2.00;;;;;;;;;;5015534;28;20160;-66
2021/06/16 07:46:12;;;;;;;5.20;1.30;;;;;;;;;;5011980;28;20141;-65
2021/06/16 07:48:39;;;;;;;5.68;1.42;;;;;;;;;;5032076;28;20029;-66
2021/06/16 07:51:06;;;;;;;5.68;1.35;;;;;;;;;;5023202;28;20023;-65
2021/06/16 07:53:33;;;;;;;9.68;1.60;;;;;;;;;;5018079;28;20025;-65
2021/06/16 07:56:01;;;;;;;5.18;1.13;;;;;;;;;;5018626;28;20022;-66
2021/06/16 07:58:28;;;;;;;6.43;1.80;;;;;;;;;;5034832;28;20036;-66
2021/06/16 08:00:55;;;;;;;4.38;1.50;;;;;;;;;;5019476;28;20066;-65
2021/06/16 08:03:22;;;;;;;6.55;1.55;;;;;;;;;;5016969;28;20371;-66
2021/06/16 08:05:50;;;;;;;4.13;1.73;;;;;;;;;;5018745;28;20478;-66
2021/06/16 08:08:18;;;;;;;9.25;2.17;;;;;;;;;;5029709;28;20632;-65
2021/06/16 08:10:45;;;;;;;2.95;1.42;;;;;;;;;;5027224;28;20033;-65
2021/06/16 08:13:12;;;;;;;5.20;1.63;;;;;;;;;;5013435;28;20024;-65
2021/06/16 08:15:40;;;;;;;5.82;2.22;;;;;;;;;;5021149;28;20115;-65
2021/06/16 08:18:08;;;;;;;6.75;1.85;;;;;;;;;;5011476;28;20057;-66
2021/06/16 08:20:36;;;;;;;7.10;2.65;;;;;;;;;;5014569;28;20026;-65
2021/06/16 08:23:06;;;;;;;10.30;1.85;;;;;;;;;;5014453;28;20378;-65
2021/06/16 08:25:34;;;;;;;4.05;1.60;;;;;;;;;;5016749;28;20103;-66
2021/06/16 08:28:01;;;;;;;5.80;2.35;;;;;;;;;;5014358;28;20061;-65
2021/06/16 08:30:28;;;;;;;6.05;1.75;;;;;;;;;;5010333;28;20029;-65
2021/06/16 08:32:56;;;;;;;5.18;2.20;;;;;;;;;;5012638;28;20022;-65
2021/06/16 08:35:23;;;;;;;4.25;1.55;;;;;;;;;;5014549;28;20022;-65
2021/06/16 08:37:50;;;;;;;6.63;1.77;;;;;;;;;;5017617;28;20549;-65
2021/06/16 08:40:17;;;;;;;2.97;1.08;;;;;;;;;;5023414;28;20025;-65
2021/06/16 08:42:48;;;;;;;2.72;0.82;;;;;;;;;;5029073;28;20493;-65
2021/06/16 08:45:16;;;;;;;7.15;1.23;;;;;;;;;;5016851;28;20033;-65
2021/06/16 08:47:45;;;;;;;4.85;1.48;;;;;;;;;;5008319;28;20033;-65
2021/06/16 08:50:13;;;;;;;6.85;2.38;;;;;;;;;;5017874;28;20364;-66
2021/06/16 08:52:40;;;;;;;8.57;2.22;;;;;;;;;;5013952;28;20018;-66
2021/06/16 08:55:09;;;;;;;4.88;1.60;;;;;;;;;;5017108;28;20018;-66
2021/06/16 08:57:36;;;;;;;3.45;1.73;;;;;;;;;;5024889;28;20026;-66
2021/06/16 09:00:05;;;;;;;7.18;1.45;;;;;;;;;;5013837;28;20026;-66
2021/06/16 09:02:32;;;;;;;4.90;1.75;;;;;;;;;;5032955;28;20065;-66
2021/06/16 09:04:59;;;;;;;7.15;1.75;;;;;;;;;;5023499;28;20026;-66
2021/06/16 09:07:31;;;;;;;4.82;1.90;;;;;;;;;;5015368;28;20033;-66
2021/06/16 09:10:09;;;;;;;6.00;2.30;;;;;;;;;;5023708;28;20021;-66
2021/06/16 09:12:38;;;;;;;6.80;2.10;;;;;;;;;;5023573;28;20039;-66
2021/06/16 09:15:11;;;;;;;7.88;1.90;;;;;;;;;;5019619;28;20037;-66
2021/06/16 09:17:38;;;;;;;10.63;5.03;;;;;;;;;;5023069;28;20040;-66
2021/06/16 09:20:05;;;;;;;8.40;4.00;;;;;;;;;;5022248;28;20505;-66
2021/06/16 09:22:37;;;;;;;7.97;3.30;;;;;;;;;;5014572;28;20021;-66
2021/06/16 09:25:08;;;;;;;5.80;1.80;;;;;;;;;;5011459;28;20053;-66
2021/06/16 09:27:43;;;;;;;5.57;1.77;;;;;;;;;;5019517;28;20035;-66
2021/06/16 09:30:20;;;;;;;7.50;2.20;;;;;;;;;;5017242;28;20502;-66
2021/06/16 09:32:53;;;;;;;12.02;2.83;;;;;;;;;;5016696;28;20026;-66
2021/06/16 09:35:20;;;;;;;5.97;2.27;;;;;;;;;;5012475;28;20094;-66
2021/06/16 09:37:47;;;;;;;5.45;1.58;;;;;;;;;;5020050;28;20259;-66
2021/06/16 09:40:15;;;;;;;4.75;2.08;;;;;;;;;;5021354;28;20109;-66
2021/06/16 09:42:42;;;;;;;5.45;2.33;;;;;;;;;;5013156;28;20044;-67
2021/06/16 09:45:09;;;;;;;5.35;1.88;;;;;;;;;;5007980;28;20037;-66
2021/06/16 09:47:37;;;;;;;5.25;1.85;;;;;;;;;;5017927;28;20087;-66
2021/06/16 09:50:05;;;;;;;4.22;1.98;;;;;;;;;;5016750;28;20466;-66
2021/06/16 09:52:35;;;;;;;4.07;1.88;;;;;;;;;;5028574;28;20064;-66
2021/06/16 09:55:03;;;;;;;6.40;1.95;;;;;;;;;;5021959;28;20640;-66
2021/06/16 09:57:30;;;;;;;3.67;1.80;;;;;;;;;;5011831;28;20032;-66
2021/06/16 10:00:02;;;;;;;4.53;1.50;;;;;;;;;;5025355;28;20469;-66
2021/06/16 10:02:30;;;;;;;5.50;1.50;;;;;;;;;;5009644;28;20422;-65
2021/06/16 10:04:59;;;;;;;5.47;2.22;;;;;;;;;;5007368;28;20030;-66
2021/06/16 10:07:27;;;;;;;3.97;1.42;;;;;;;;;;5005913;28;20034;-66
2021/06/16 10:09:55;;;;;;;5.57;1.27;;;;;;;;;;5014193;28;20525;-66
2021/06/16 10:12:26;;;;;;;3.72;1.13;;;;;;;;;;5016894;28;20105;-66
2021/06/16 10:14:54;;;;;;;4.88;1.27;;;;;;;;;;5014896;28;20025;-66
2021/06/16 10:17:21;;;;;;;4.90;1.20;;;;;;;;;;5019759;28;20041;-66
2021/06/16 10:19:49;;;;;;;4.32;1.90;;;;;;;;;;5012900;28;20026;-66
2021/06/16 10:22:17;;;;;;;2.50;1.20;;;;;;;;;;5016681;28;20018;-66
2021/06/16 10:24:44;;;;;;;4.32;1.10;;;;;;;;;;5014023;28;20137;-66
2021/06/16 10:27:15;;;;;;;3.13;1.30;;;;;;;;;;5015544;28;20095;-66
2021/06/16 10:29:44;;;;;;;3.10;0.98;;;;;;;;;;5021162;28;20022;-66
2021/06/16 10:32:12;;;;;;;2.08;0.80;;;;;;;;;;5029868;28;20033;-66
2021/06/16 10:34:55;;;;;;;4.07;0.73;;;;;;;;;;5018861;28;20029;-66
2021/06/16 10:37:29;;;;;;;2.55;0.82;;;;;;;;;;5021780;28;20044;-66
2021/06/16 10:40:21;;;;;;;1.65;0.95;;;;;;;;;;5019428;28;20041;-66
2021/06/16 10:43:05;;;;;;;3.72;1.10;;;;;;;;;;5003155;28;20128;-66
2021/06/16 10:45:47;;;;;;;2.50;1.20;;;;;;;;;;5014857;28;20078;-66
2021/06/16 10:48:15;;;;;;;3.17;1.33;;;;;;;;;;5031619;28;20069;-66
2021/06/16 10:50:50;;;;;;;1.90;0.90;;;;;;;;;;5027036;28;20021;-66
2021/06/16 10:53:18;;;;;;;3.92;1.45;;;;;;;;;;5017985;28;20104;-66
2021/06/16 10:55:57;;;;;;;3.95;1.30;;;;;;;;;;5012574;28;20025;-66
2021/06/16 10:58:27;;;;;;;4.43;1.83;;;;;;;;;;5013481;28;20022;-66
2021/06/16 11:01:14;;;;;;;3.15;1.88;;;;;;;;;;5012089;28;20037;-66
2021/06/16 11:03:48;;;;;;;3.33;1.75;;;;;;;;;;5012304;28;20387;-65
2021/06/16 11:06:36;;;;;;;7.32;1.55;;;;;;;;;;5017470;28;20026;-65
2021/06/16 11:09:05;;;;;;;3.70;1.70;;;;;;;;;;5024085;28;20053;-67
2021/06/16 11:11:51;;;;;;;5.32;1.45;;;;;;;;;;5010466;28;20018;-65
2021/06/16 11:14:36;;;;;;;3.28;1.40;;;;;;;;;;5008263;28;20025;-67
2021/06/16 11:17:04;;;;;;;4.10;1.27;;;;;;;;;;5004824;28;20022;-67
2021/06/16 11:19:38;;;;;;;4.72;1.40;;;;;;;;;;5005041;28;20030;-67
2021/06/16 11:22:25;;;;;;;3.85;1.40;;;;;;;;;;5007999;28;20467;-67
2021/06/16 11:25:10;;;;;;;6.13;2.33;;;;;;;;;;4997922;28;20085;-67
2021/06/16 11:27:56;;;;;;;2.80;1.08;;;;;;;;;;5009873;28;20040;-67
2021/06/16 11:30:38;;;;;;;4.07;1.10;;;;;;;;;;5005919;28;20026;-67
2021/06/16 11:33:14;;;;;;;3.85;1.48;;;;;;;;;;5022707;28;20079;-67
2021/06/16 11:35:42;;;;;;;3.80;1.35;;;;;;;;;;5005560;28;20026;-67
2021/06/16 11:38:10;;;;;;;4.05;1.33;;;;;;;;;;5008519;28;20390;-67
2021/06/16 11:40:37;;;;;;;4.43;1.40;;;;;;;;;;5013807;28;20091;-67
2021/06/16 11:43:05;;;;;;;6.75;1.58;;;;;;;;;;5013425;28;20069;-67
2021/06/16 11:45:33;;;;;;;5.00;1.42;;;;;;;;;;4991860;28;20026;-67
2021/06/16 11:48:01;;;;;;;5.15;1.05;;;;;;;;;;5010136;28;20100;-67
2021/06/16 11:50:33;;;;;;;4.50;1.13;;;;;;;;;;5009584;28;20443;-67
2021/06/16 11:53:00;;;;;;;7.53;1.42;;;;;;;;;;5010079;28;20426;-67
2021/06/16 11:55:56;;;;;;;4.45;1.35;;;;;;;;;;5015273;28;20038;-67
2021/06/16 11:58:24;;;;;;;6.95;1.25;;;;;;;;;;4983349;28;20081;-67
2021/06/16 12:00:52;;;;;;;10.07;1.45;;;;;;;;;;5009118;28;20022;-68
2021/06/16 12:03:20;;;;;;;4.95;1.83;;;;;;;;;;5007514;28;20439;-67
2021/06/16 12:05:47;;;;;;;5.22;2.22;;;;;;;;;;5009083;28;20058;-67
2021/06/16 12:08:22;;;;;;;7.53;1.55;;;;;;;;;;5010740;28;20100;-68
2021/06/16 12:10:50;;;;;;;7.95;1.70;;;;;;;;;;5017513;28;20029;-66
2021/06/16 12:13:17;;;;;;;6.60;2.15;;;;;;;;;;5018086;28;20024;-66
2021/06/16 12:15:44;;;;;;;6.13;1.77;;;;;;;;;;5007415;28;20440;-67
2021/06/16 12:18:15;;;;;;;5.95;1.50;;;;;;;;;;5011066;28;20040;-67
2021/06/16 12:20:45;;;;;;;4.22;1.80;;;;;;;;;;5011701;28;20022;-67
2021/06/16 12:23:20;;;;;;;5.38;1.70;;;;;;;;;;5011210;28;20052;-67
2021/06/16 12:25:48;;;;;;;3.00;1.55;;;;;;;;;;5010261;28;20050;-66
2021/06/16 12:28:16;;;;;;;6.07;3.10;;;;;;;;;;5012970;28;20109;-66
2021/06/16 12:30:44;;;;;;;7.57;4.57;;;;;;;;;;5012953;28;20446;-67
2021/06/16 12:33:18;;;;;;;6.28;3.88;;;;;;;;;;5013227;28;20383;-66
2021/06/16 12:36:22;;;;;;;9.50;4.05;;;;;;;;;;5005571;28;20026;-67
2021/06/16 12:38:43;;;;;;;6.47;3.72;;;;;;;;;;5011147;28;20205;-68
2021/06/16 12:41:31;;;;;;;12.18;4.80;;;;;;;;;;5010950;28;20050;-67
2021/06/16 12:44:16;;;;;;;7.88;4.32;;;;;;;;;;5009682;28;20041;-67
2021/06/16 12:46:50;;;;;;;9.05;4.65;;;;;;;;;;5013417;28;20061;-67
2021/06/16 12:49:18;;;;;;;10.00;5.28;;;;;;;;;;5011558;28;20026;-67
2021/06/16 12:51:51;;;;;;;7.28;4.93;;;;;;;;;;4995936;28;20033;-67
2021/06/16 12:54:35;;;;;;;7.13;4.77;;;;;;;;;;5012453;28;20437;-67
2021/06/16 12:57:23;;;;;;;9.63;5.60;;;;;;;;;;5010042;28;20030;-67
2021/06/16 12:59:56;;;;;;;10.80;6.85;;;;;;;;;;5009638;28;20038;-67
2021/06/16 13:02:30;;;;;;;9.55;6.25;;;;;;;;;;5011309;28;20511;-67
2021/06/16 13:04:57;;;;;;;11.90;5.93;;;;;;;;;;5011838;28;20084;-67
2021/06/16 13:07:40;;;;;;;6.93;5.15;;;;;;;;;;5012708;28;20038;-67
2021/06/16 13:10:07;;;;;;;9.95;5.38;;;;;;;;;;5006449;28;20033;-67
2021/06/16 13:12:35;;;;;;;7.75;4.82;;;;;;;;;;5011246;28;20096;-67
2021/06/16 13:15:04;;;;;;;5.90;5.00;;;;;;;;;;5010420;28;20034;-67
2021/06/16 13:17:42;;;;;;;13.50;5.53;;;;;;;;;;5006275;28;20030;-67
2021/06/16 13:20:09;;;;;;;12.48;5.80;;;;;;;;;;5011342;28;20022;-67
2021/06/16 13:22:45;;;;;;;10.35;5.80;;;;;;;;;;5009537;28;20030;-67
2021/06/16 13:25:13;;;;;;;11.07;5.25;;;;;;;;;;5009324;28;20042;-66
2021/06/16 13:27:53;;;;;;;15.40;5.65;;;;;;;;;;5003764;28;20483;-67
2021/06/16 13:30:40;;;;;;;11.38;5.85;;;;;;;;;;5011751;28;20025;-67
2021/06/16 13:33:07;;;;;;;8.90;5.50;;;;;;;;;;5012522;28;20032;-67
2021/06/16 13:35:34;;;;;;;9.15;5.57;;;;;;;;;;5010922;28;20077;-67
2021/06/16 13:38:01;;;;;;;9.05;5.50;;;;;;;;;;5019156;28;20018;-68
2021/06/16 13:40:28;;;;;;;7.65;5.93;;;;;;;;;;4994796;28;20451;-67
2021/06/16 13:42:57;;;;;;;11.63;6.22;;;;;;;;;;5012686;28;20041;-67
2021/06/16 13:45:29;;;;;;;7.53;6.00;;;;;;;;;;5011263;28;20028;-67
2021/06/16 13:47:56;;;;;;;12.07;5.93;;;;;;;;;;4996154;28;20084;-67
2021/06/16 13:50:24;;;;;;;11.32;7.43;;;;;;;;;;5012122;28;20359;-67
2021/06/16 13:52:52;;;;;;;11.77;7.72;;;;;;;;;;5011273;28;20036;-67
2021/06/16 13:55:19;;;;;;;16.33;9.40;;;;;;;;;;5011042;28;20026;-67
2021/06/16 13:57:46;;;;;;;14.02;10.45;;;;;;;;;;5012378;28;20437;-67
2021/06/16 14:00:14;;;;;;;16.00;11.02;;;;;;;;;;5010588;28;20083;-67
2021/06/16 14:02:42;;;;;;;13.93;10.93;;;;;;;;;;5011930;28;20017;-67
2021/06/16 14:05:10;;;;;;;13.70;10.52;;;;;;;;;;4992729;28;20030;-67
2021/06/16 14:07:37;;;;;;;15.20;9.13;;;;;;;;;;5008050;28;20065;-67
2021/06/16 14:10:05;;;;;;;10.77;7.72;;;;;;;;;;5011007;28;20033;-67
2021/06/16 14:12:33;;;;;;;12.02;7.68;;;;;;;;;;5011439;28;20104;-66
2021/06/16 14:15:00;;;;;;;10.10;6.97;;;;;;;;;;5010002;28;20022;-67
2021/06/16 14:17:27;;;;;;;6.40;4.60;;;;;;;;;;5011259;28;20037;-67
2021/06/16 14:19:54;;;;;;;8.15;4.68;;;;;;;;;;5009195;28;20071;-67
2021/06/16 14:22:21;;;;;;;8.65;3.40;;;;;;;;;;5011888;28;20474;-67
2021/06/16 14:24:49;;;;;;;4.70;3.15;;;;;;;;;;5010685;28;20046;-67
2021/06/16 14:27:16;;;;;;;3.47;2.50;;;;;;;;;;5011263;28;20017;-67
2021/06/16 14:29:43;;;;;;;5.75;2.88;;;;;;;;;;5011328;28;20026;-67
2021/06/16 14:32:10;;;;;;;3.60;2.40;;;;;;;;;;5010010;28;20379;-67
2021/06/16 14:34:37;;;;;;;6.50;2.50;;;;;;;;;;5007350;28;20029;-67
2021/06/16 14:37:04;;;;;;;6.15;2.58;;;;;;;;;;5010560;28;20121;-67
2021/06/16 14:39:31;;;;;;;5.75;2.80;;;;;;;;;;5011347;28;20101;-67
2021/06/16 14:41:59;;;;;;;5.35;2.67;;;;;;;;;;5007010;28;20018;-67
2021/06/16 14:44:26;;;;;;;4.50;3.00;;;;;;;;;;5013168;28;20108;-67
2021/06/16 14:46:54;;;;;;;3.53;2.45;;;;;;;;;;5011386;28;20034;-67
2021/06/16 14:49:21;;;;;;;6.00;3.00;;;;;;;;;;5011473;28;20504;-68
2021/06/16 14:51:48;;;;;;;4.88;3.10;;;;;;;;;;5009198;28;20033;-68
2021/06/16 14:54:17;;;;;;;7.00;3.08;;;;;;;;;;5016383;28;20105;-68